sensor_id;sensor_type;location;lat;lon;timestamp;pressure;altitude;pressure_sealevel;temperature;humidity
53719;BME280;39616;48.872;9.390;2024-03-17T00:01:50;99084.00;;;5.47;100.00
53719;BME280;39616;48.872;9.390;2024-03-17T00:04:20;99084.28;;;5.45;100.00
53719;BME280;39616;48.872;9.390;2024-03-17T00:06:51;99072.34;;;5.41;100.00
53719;BME280;39616;48.872;9.390;2024-03-17T00:09:22;99073.09;;;5.37;100.00
53719;BME280;39616;48.872;9.390;2024-03-17T00:11:54;99078.94;;;5.33;100.00
53719;BME280;39616;48.872;9.390;2024-03-17T00:14:25;99081.47;;;5.23;100.00
53719;BME280;39616;48.872;9.390;2024-03-17T00:16:58;99075.44;;;5.16;100.00
53719;BME280;39616;48.872;9.390;2024-03-17T00:19:28;99081.53;;;5.12;100.00
53719;BME280;39616;48.872;9.390;2024-03-17T00:22:00;99086.09;;;5.11;100.00
53719;BME280;39616;48.872;9.390;2024-03-17T00:24:30;99083.19;;;5.13;100.00
53719;BME280;39616;48.872;9.390;2024-03-17T00:27:04;99080.81;;;5.16;100.00
53719;BME280;39616;48.872;9.390;2024-03-17T00:29:35;99087.97;;;5.11;100.00
53719;BME280;39616;48.872;9.390;2024-03-17T00:32:06;99078.63;;;5.13;100.00
53719;BME280;39616;48.872;9.390;2024-03-17T00:34:36;99073.22;;;5.13;100.00
53719;BME280;39616;48.872;9.390;2024-03-17T00:37:07;99075.81;;;5.08;100.00
53719;BME280;39616;48.872;9.390;2024-03-17T00:39:37;99075.25;;;5.06;100.00
53719;BME280;39616;48.872;9.390;2024-03-17T00:42:08;99081.38;;;5.01;100.00
53719;BME280;39616;48.872;9.390;2024-03-17T00:44:38;99070.38;;;5.03;100.00
53719;BME280;39616;48.872;9.390;2024-03-17T00:47:08;99065.78;;;5.03;100.00
53719;BME280;39616;48.872;9.390;2024-03-17T00:49:39;99064.19;;;5.02;100.00
53719;BME280;39616;48.872;9.390;2024-03-17T00:52:10;99056.69;;;5.04;100.00
53719;BME280;39616;48.872;9.390;2024-03-17T00:54:40;99058.53;;;5.04;100.00
53719;BME280;39616;48.872;9.390;2024-03-17T00:57:10;99057.06;;;4.96;100.00
53719;BME280;39616;48.872;9.390;2024-03-17T00:59:41;99055.19;;;4.97;100.00
53719;BME280;39616;48.872;9.390;2024-03-17T01:02:17;99052.50;;;4.97;100.00
53719;BME280;39616;48.872;9.390;2024-03-17T01:04:48;99052.16;;;4.93;100.00
53719;BME280;39616;48.872;9.390;2024-03-17T01:07:18;99050.31;;;4.94;100.00
53719;BME280;39616;48.872;9.390;2024-03-17T01:09:48;99060.97;;;4.89;100.00
53719;BME280;39616;48.872;9.390;2024-03-17T01:12:19;99050.69;;;4.85;100.00
53719;BME280;39616;48.872;9.390;2024-03-17T01:14:49;99053.28;;;4.80;100.00
53719;BME280;39616;48.872;9.390;2024-03-17T01:17:19;99049.88;;;4.85;100.00
53719;BME280;39616;48.872;9.390;2024-03-17T01:19:50;99057.22;;;4.90;100.00
53719;BME280;39616;48.872;9.390;2024-03-17T01:22:21;99050.47;;;4.87;100.00
53719;BME280;39616;48.872;9.390;2024-03-17T01:24:52;99040.47;;;4.71;100.00
53719;BME280;39616;48.872;9.390;2024-03-17T01:27:22;99044.97;;;4.65;100.00
53719;BME280;39616;48.872;9.390;2024-03-17T01:29:52;99042.03;;;4.67;100.00
53719;BME280;39616;48.872;9.390;2024-03-17T01:32:23;99036.16;;;4.70;100.00
53719;BME280;39616;48.872;9.390;2024-03-17T01:34:53;99036.16;;;4.70;100.00
53719;BME280;39616;48.872;9.390;2024-03-17T01:37:23;99032.69;;;4.69;100.00
53719;BME280;39616;48.872;9.390;2024-03-17T01:39:54;99032.94;;;4.68;100.00
53719;BME280;39616;48.872;9.390;2024-03-17T01:42:25;99026.25;;;4.70;100.00
53719;BME280;39616;48.872;9.390;2024-03-17T01:44:55;99016.06;;;4.72;100.00
53719;BME280;39616;48.872;9.390;2024-03-17T01:47:25;99025.44;;;4.70;100.00
53719;BME280;39616;48.872;9.390;2024-03-17T01:49:56;99023.13;;;4.62;100.00
53719;BME280;39616;48.872;9.390;2024-03-17T01:52:26;99017.66;;;4.56;100.00
53719;BME280;39616;48.872;9.390;2024-03-17T01:54:56;99029.22;;;4.57;100.00
53719;BME280;39616;48.872;9.390;2024-03-17T01:57:27;99015.47;;;4.53;100.00
53719;BME280;39616;48.872;9.390;2024-03-17T01:59:58;99014.75;;;4.58;100.00
53719;BME280;39616;48.872;9.390;2024-03-17T02:02:28;99011.31;;;4.63;100.00
53719;BME280;39616;48.872;9.390;2024-03-17T02:04:58;99008.09;;;4.60;100.00
53719;BME280;39616;48.872;9.390;2024-03-17T02:07:29;99009.41;;;4.46;100.00
53719;BME280;39616;48.872;9.390;2024-03-17T02:10:00;99004.09;;;4.34;100.00
53719;BME280;39616;48.872;9.390;2024-03-17T02:12:31;99000.56;;;4.34;100.00
53719;BME280;39616;48.872;9.390;2024-03-17T02:15:02;99002.84;;;4.25;100.00
53719;BME280;39616;48.872;9.390;2024-03-17T02:17:35;98999.44;;;4.30;100.00
53719;BME280;39616;48.872;9.390;2024-03-17T02:20:06;98988.13;;;4.28;100.00
53719;BME280;39616;48.872;9.390;2024-03-17T02:22:37;98992.09;;;4.25;100.00
53719;BME280;39616;48.872;9.390;2024-03-17T02:25:08;98990.47;;;4.24;100.00
53719;BME280;39616;48.872;9.390;2024-03-17T02:27:38;98995.03;;;4.24;100.00
53719;BME280;39616;48.872;9.390;2024-03-17T02:30:09;98980.41;;;4.31;100.00
53719;BME280;39616;48.872;9.390;2024-03-17T02:32:39;98980.97;;;4.33;100.00
53719;BME280;39616;48.872;9.390;2024-03-17T02:35:09;98983.91;;;4.32;100.00
53719;BME280;39616;48.872;9.390;2024-03-17T02:37:41;98976.41;;;4.34;100.00
53719;BME280;39616;48.872;9.390;2024-03-17T02:40:12;98980.03;;;4.40;100.00
53719;BME280;39616;48.872;9.390;2024-03-17T02:42:45;98981.41;;;4.42;100.00
53719;BME280;39616;48.872;9.390;2024-03-17T02:45:15;98981.50;;;4.47;100.00
53719;BME280;39616;48.872;9.390;2024-03-17T02:47:45;98975.88;;;4.49;100.00
53719;BME280;39616;48.872;9.390;2024-03-17T02:50:16;98974.72;;;4.45;100.00
53719;BME280;39616;48.872;9.390;2024-03-17T02:52:46;98972.84;;;4.45;100.00
53719;BME280;39616;48.872;9.390;2024-03-17T02:55:16;98972.78;;;4.40;100.00
53719;BME280;39616;48.872;9.390;2024-03-17T02:57:47;98978.00;;;4.47;100.00
53719;BME280;39616;48.872;9.390;2024-03-17T03:00:17;98977.19;;;4.46;100.00
53719;BME280;39616;48.872;9.390;2024-03-17T03:02:50;98970.16;;;4.45;100.00
53719;BME280;39616;48.872;9.390;2024-03-17T03:05:20;98978.00;;;4.47;100.00
53719;BME280;39616;48.872;9.390;2024-03-17T03:07:50;98975.53;;;4.45;100.00
53719;BME280;39616;48.872;9.390;2024-03-17T03:10:22;98969.13;;;4.46;100.00
53719;BME280;39616;48.872;9.390;2024-03-17T03:12:52;98973.44;;;4.47;100.00
53719;BME280;39616;48.872;9.390;2024-03-17T03:15:22;98967.81;;;4.49;100.00
53719;BME280;39616;48.872;9.390;2024-03-17T03:17:53;98977.75;;;4.48;100.00
53719;BME280;39616;48.872;9.390;2024-03-17T03:20:23;98972.97;;;4.50;100.00
53719;BME280;39616;48.872;9.390;2024-03-17T03:22:54;98968.16;;;4.52;100.00
53719;BME280;39616;48.872;9.390;2024-03-17T03:25:26;98968.47;;;4.56;100.00
53719;BME280;39616;48.872;9.390;2024-03-17T03:27:57;98969.00;;;4.53;100.00
53719;BME280;39616;48.872;9.390;2024-03-17T03:30:28;98959.88;;;4.54;100.00
53719;BME280;39616;48.872;9.390;2024-03-17T03:32:58;98964.66;;;4.52;100.00
53719;BME280;39616;48.872;9.390;2024-03-17T03:35:28;98967.75;;;4.44;100.00
53719;BME280;39616;48.872;9.390;2024-03-17T03:37:58;98967.88;;;4.37;100.00
53719;BME280;39616;48.872;9.390;2024-03-17T03:40:29;98961.84;;;4.30;100.00
53719;BME280;39616;48.872;9.390;2024-03-17T03:42:59;98961.84;;;4.30;100.00
53719;BME280;39616;48.872;9.390;2024-03-17T03:45:30;98961.84;;;4.30;100.00
53719;BME280;39616;48.872;9.390;2024-03-17T03:48:01;98955.19;;;4.32;100.00
53719;BME280;39616;48.872;9.390;2024-03-17T03:50:31;98956.81;;;4.33;100.00
53719;BME280;39616;48.872;9.390;2024-03-17T03:53:03;98957.94;;;4.38;100.00
53719;BME280;39616;48.872;9.390;2024-03-17T03:55:35;98954.94;;;4.34;100.00
53719;BME280;39616;48.872;9.390;2024-03-17T03:58:07;98954.03;;;4.28;100.00
53719;BME280;39616;48.872;9.390;2024-03-17T04:00:37;98954.25;;;4.27;100.00
53719;BME280;39616;48.872;9.390;2024-03-17T04:03:09;98954.25;;;4.27;100.00
53719;BME280;39616;48.872;9.390;2024-03-17T04:05:39;98960.06;;;4.35;100.00
53719;BME280;39616;48.872;9.390;2024-03-17T04:08:10;98955.22;;;4.21;100.00
53719;BME280;39616;48.872;9.390;2024-03-17T04:10:40;98955.22;;;4.21;100.00
53719;BME280;39616;48.872;9.390;2024-03-17T04:13:10;98955.22;;;4.21;100.00
53719;BME280;39616;48.872;9.390;2024-03-17T04:15:41;98959.47;;;4.17;100.00
53719;BME280;39616;48.872;9.390;2024-03-17T04:18:11;98956.53;;;4.18;100.00
53719;BME280;39616;48.872;9.390;2024-03-17T04:20:41;98956.78;;;4.17;100.00
53719;BME280;39616;48.872;9.390;2024-03-17T04:23:12;98957.09;;;4.20;100.00
53719;BME280;39616;48.872;9.390;2024-03-17T04:25:42;98962.22;;;4.22;100.00
53719;BME280;39616;48.872;9.390;2024-03-17T04:28:14;98958.47;;;4.23;100.00
53719;BME280;39616;48.872;9.390;2024-03-17T04:30:44;98961.63;;;4.31;100.00
53719;BME280;39616;48.872;9.390;2024-03-17T04:33:15;98961.69;;;4.36;100.00
53719;BME280;39616;48.872;9.390;2024-03-17T04:35:48;98957.81;;;4.44;100.00
53719;BME280;39616;48.872;9.390;2024-03-17T04:38:19;98958.47;;;4.34;100.00
53719;BME280;39616;48.872;9.390;2024-03-17T04:40:50;98960.22;;;4.29;100.00
53719;BME280;39616;48.872;9.390;2024-03-17T04:43:21;98961.16;;;4.23;100.00
53719;BME280;39616;48.872;9.390;2024-03-17T04:45:59;98969.13;;;4.18;100.00
53719;BME280;39616;48.872;9.390;2024-03-17T04:48:30;98973.88;;;4.27;100.00
53719;BME280;39616;48.872;9.390;2024-03-17T04:51:01;98974.38;;;4.24;100.00
53719;BME280;39616;48.872;9.390;2024-03-17T04:53:32;98970.38;;;4.27;100.00
53719;BME280;39616;48.872;9.390;2024-03-17T04:56:04;98966.66;;;4.28;100.00
53719;BME280;39616;48.872;9.390;2024-03-17T04:58:34;98968.94;;;4.36;100.00
53719;BME280;39616;48.872;9.390;2024-03-17T05:01:08;98975.06;;;4.48;100.00
53719;BME280;39616;48.872;9.390;2024-03-17T05:03:39;98969.13;;;4.46;100.00
53719;BME280;39616;48.872;9.390;2024-03-17T05:06:10;98959.44;;;4.45;100.00
53719;BME280;39616;48.872;9.390;2024-03-17T05:08:40;98965.78;;;4.39;100.00
53719;BME280;39616;48.872;9.390;2024-03-17T05:11:10;98971.03;;;4.34;100.00
53719;BME280;39616;48.872;9.390;2024-03-17T05:13:42;98968.34;;;4.34;100.00
53719;BME280;39616;48.872;9.390;2024-03-17T05:16:12;98965.72;;;4.22;100.00
53719;BME280;39616;48.872;9.390;2024-03-17T05:18:42;98966.91;;;4.15;100.00
53719;BME280;39616;48.872;9.390;2024-03-17T05:21:13;98970.19;;;4.05;100.00
53719;BME280;39616;48.872;9.390;2024-03-17T05:23:43;98965.56;;;4.00;100.00
53719;BME280;39616;48.872;9.390;2024-03-17T05:26:14;98967.22;;;3.90;100.00
53719;BME280;39616;48.872;9.390;2024-03-17T05:28:44;98966.31;;;3.84;100.00
53719;BME280;39616;48.872;9.390;2024-03-17T05:31:14;98964.47;;;3.73;100.00
53719;BME280;39616;48.872;9.390;2024-03-17T05:33:48;98962.72;;;3.67;100.00
53719;BME280;39616;48.872;9.390;2024-03-17T05:36:18;98978.00;;;3.66;100.00
53719;BME280;39616;48.872;9.390;2024-03-17T05:38:50;98972.19;;;3.69;100.00
53719;BME280;39616;48.872;9.390;2024-03-17T05:41:20;98971.81;;;3.66;100.00
53719;BME280;39616;48.872;9.390;2024-03-17T05:43:50;98968.22;;;3.60;100.00
53719;BME280;39616;48.872;9.390;2024-03-17T05:46:21;98966.13;;;3.62;100.00
53719;BME280;39616;48.872;9.390;2024-03-17T05:48:51;98973.69;;;3.53;100.00
53719;BME280;39616;48.872;9.390;2024-03-17T05:51:21;98976.16;;;3.55;100.00
53719;BME280;39616;48.872;9.390;2024-03-17T05:53:52;98974.50;;;3.66;100.00
53719;BME280;39616;48.872;9.390;2024-03-17T05:56:22;98976.47;;;3.70;100.00
53719;BME280;39616;48.872;9.390;2024-03-17T05:58:56;98977.88;;;3.73;100.00
53719;BME280;39616;48.872;9.390;2024-03-17T06:01:26;98971.72;;;3.72;100.00
53719;BME280;39616;48.872;9.390;2024-03-17T06:03:56;98976.34;;;3.77;100.00
53719;BME280;39616;48.872;9.390;2024-03-17T06:06:26;98970.75;;;3.78;100.00
53719;BME280;39616;48.872;9.390;2024-03-17T06:08:57;98964.44;;;3.84;100.00
53719;BME280;39616;48.872;9.390;2024-03-17T06:11:27;98968.88;;;3.91;100.00
53719;BME280;39616;48.872;9.390;2024-03-17T06:13:57;98972.53;;;4.01;100.00
53719;BME280;39616;48.872;9.390;2024-03-17T06:16:32;98972.63;;;4.18;100.00
53719;BME280;39616;48.872;9.390;2024-03-17T06:19:02;98961.03;;;4.29;100.00
53719;BME280;39616;48.872;9.390;2024-03-17T06:21:33;98962.03;;;4.40;100.00
53719;BME280;39616;48.872;9.390;2024-03-17T06:24:03;98960.94;;;4.53;100.00
53719;BME280;39616;48.872;9.390;2024-03-17T06:26:34;98957.94;;;4.66;100.00
53719;BME280;39616;48.872;9.390;2024-03-17T06:29:04;98954.63;;;4.76;100.00
53719;BME280;39616;48.872;9.390;2024-03-17T06:31:34;98952.91;;;4.87;100.00
53719;BME280;39616;48.872;9.390;2024-03-17T06:34:05;98950.22;;;5.03;100.00
53719;BME280;39616;48.872;9.390;2024-03-17T06:36:35;98946.44;;;5.21;100.00
53719;BME280;39616;48.872;9.390;2024-03-17T06:39:05;98945.31;;;5.34;100.00
53719;BME280;39616;48.872;9.390;2024-03-17T06:41:35;98931.81;;;5.51;100.00
53719;BME280;39616;48.872;9.390;2024-03-17T06:44:07;98937.47;;;5.71;100.00
53719;BME280;39616;48.872;9.390;2024-03-17T06:46:38;98933.41;;;5.91;100.00
53719;BME280;39616;48.872;9.390;2024-03-17T06:49:08;98939.91;;;6.17;100.00
53719;BME280;39616;48.872;9.390;2024-03-17T06:51:39;98942.94;;;6.47;100.00
53719;BME280;39616;48.872;9.390;2024-03-17T06:54:09;98953.44;;;6.76;100.00
53719;BME280;39616;48.872;9.390;2024-03-17T06:56:40;98951.53;;;7.04;100.00
53719;BME280;39616;48.872;9.390;2024-03-17T06:59:10;98943.56;;;7.19;100.00
53719;BME280;39616;48.872;9.390;2024-03-17T07:01:40;98950.94;;;7.34;100.00
53719;BME280;39616;48.872;9.390;2024-03-17T07:04:10;98943.44;;;7.46;100.00
53719;BME280;39616;48.872;9.390;2024-03-17T07:06:41;98945.41;;;7.61;100.00
53719;BME280;39616;48.872;9.390;2024-03-17T07:09:11;98942.56;;;7.83;100.00
53719;BME280;39616;48.872;9.390;2024-03-17T07:11:41;98940.47;;;8.00;100.00
53719;BME280;39616;48.872;9.390;2024-03-17T07:14:12;98951.34;;;8.20;100.00
53719;BME280;39616;48.872;9.390;2024-03-17T07:16:42;98945.78;;;8.48;100.00
53719;BME280;39616;48.872;9.390;2024-03-17T07:19:12;98940.94;;;8.55;100.00
53719;BME280;39616;48.872;9.390;2024-03-17T07:21:42;98936.09;;;8.77;100.00
53719;BME280;39616;48.872;9.390;2024-03-17T07:24:13;98936.63;;;8.94;100.00
53719;BME280;39616;48.872;9.390;2024-03-17T07:26:43;98933.91;;;9.20;100.00
53719;BME280;39616;48.872;9.390;2024-03-17T07:29:13;98936.03;;;9.54;100.00
53719;BME280;39616;48.872;9.390;2024-03-17T07:31:44;98936.84;;;9.49;100.00
53719;BME280;39616;48.872;9.390;2024-03-17T07:34:14;98936.34;;;9.22;100.00
53719;BME280;39616;48.872;9.390;2024-03-17T07:36:45;98930.41;;;9.14;100.00
53719;BME280;39616;48.872;9.390;2024-03-17T07:39:15;98934.97;;;9.39;100.00
53719;BME280;39616;48.872;9.390;2024-03-17T07:41:46;98934.88;;;9.80;100.00
53719;BME280;39616;48.872;9.390;2024-03-17T07:44:16;98931.25;;;10.00;100.00
53719;BME280;39616;48.872;9.390;2024-03-17T07:46:47;98932.72;;;9.77;100.00
53719;BME280;39616;48.872;9.390;2024-03-17T07:49:17;98930.34;;;9.50;100.00
53719;BME280;39616;48.872;9.390;2024-03-17T07:51:48;98932.53;;;9.28;100.00
53719;BME280;39616;48.872;9.390;2024-03-17T07:54:19;98929.03;;;9.32;100.00
53719;BME280;39616;48.872;9.390;2024-03-17T07:56:49;98933.09;;;9.40;100.00
53719;BME280;39616;48.872;9.390;2024-03-17T07:59:20;98933.06;;;9.45;100.00
53719;BME280;39616;48.872;9.390;2024-03-17T08:01:50;98939.28;;;9.46;100.00
53719;BME280;39616;48.872;9.390;2024-03-17T08:04:24;98934.94;;;9.50;100.00
53719;BME280;39616;48.872;9.390;2024-03-17T08:06:56;98935.47;;;9.62;100.00
53719;BME280;39616;48.872;9.390;2024-03-17T08:09:28;98931.09;;;9.76;100.00
53719;BME280;39616;48.872;9.390;2024-03-17T08:12:01;98929.81;;;10.28;100.00
53719;BME280;39616;48.872;9.390;2024-03-17T08:14:34;98928.88;;;10.82;100.00
53719;BME280;39616;48.872;9.390;2024-03-17T08:17:04;98930.41;;;10.99;95.11
53719;BME280;39616;48.872;9.390;2024-03-17T08:19:36;98916.53;;;11.29;94.12
53719;BME280;39616;48.872;9.390;2024-03-17T08:22:06;98915.66;;;11.63;93.74
53719;BME280;39616;48.872;9.390;2024-03-17T08:24:36;98912.69;;;12.07;89.02
53719;BME280;39616;48.872;9.390;2024-03-17T08:27:07;98908.59;;;12.10;89.44
53719;BME280;39616;48.872;9.390;2024-03-17T08:29:37;98910.97;;;12.17;91.25
53719;BME280;39616;48.872;9.390;2024-03-17T08:32:08;98910.03;;;11.83;89.64
53719;BME280;39616;48.872;9.390;2024-03-17T08:34:38;98912.75;;;11.83;92.16
53719;BME280;39616;48.872;9.390;2024-03-17T08:37:08;98911.22;;;11.72;90.84
53719;BME280;39616;48.872;9.390;2024-03-17T08:39:39;98913.88;;;11.77;89.51
53719;BME280;39616;48.872;9.390;2024-03-17T08:42:09;98915.50;;;11.78;90.67
53719;BME280;39616;48.872;9.390;2024-03-17T08:44:39;98914.97;;;11.76;92.94
53719;BME280;39616;48.872;9.390;2024-03-17T08:47:09;98916.88;;;11.76;89.89
53719;BME280;39616;48.872;9.390;2024-03-17T08:49:40;98920.69;;;11.51;92.14
53719;BME280;39616;48.872;9.390;2024-03-17T08:52:10;98916.69;;;11.43;93.94
53719;BME280;39616;48.872;9.390;2024-03-17T08:54:41;98914.91;;;11.57;94.55
53719;BME280;39616;48.872;9.390;2024-03-17T08:57:12;98907.03;;;11.80;93.05
53719;BME280;39616;48.872;9.390;2024-03-17T08:59:46;98912.75;;;11.83;90.33
53719;BME280;39616;48.872;9.390;2024-03-17T09:02:16;98919.09;;;11.45;91.19
53719;BME280;39616;48.872;9.390;2024-03-17T09:04:47;98919.56;;;11.52;94.26
53719;BME280;39616;48.872;9.390;2024-03-17T09:07:17;98911.69;;;11.79;93.40
53719;BME280;39616;48.872;9.390;2024-03-17T09:09:47;98915.16;;;11.85;89.40
53719;BME280;39616;48.872;9.390;2024-03-17T09:12:18;98912.16;;;11.87;88.69
53719;BME280;39616;48.872;9.390;2024-03-17T09:14:48;98916.03;;;12.04;86.92
53719;BME280;39616;48.872;9.390;2024-03-17T09:17:19;98909.69;;;11.90;88.01
53719;BME280;39616;48.872;9.390;2024-03-17T09:19:51;98905.31;;;12.13;86.53
53719;BME280;39616;48.872;9.390;2024-03-17T09:22:21;98894.72;;;12.12;84.74
53719;BME280;39616;48.872;9.390;2024-03-17T09:24:51;98892.69;;;12.74;83.15
53719;BME280;39616;48.872;9.390;2024-03-17T09:27:21;98899.97;;;12.97;80.30
53719;BME280;39616;48.872;9.390;2024-03-17T09:29:52;98886.03;;;13.32;79.23
53719;BME280;39616;48.872;9.390;2024-03-17T09:32:24;98881.66;;;13.17;74.01
53719;BME280;39616;48.872;9.390;2024-03-17T09:34:54;98889.72;;;13.08;73.76
53719;BME280;39616;48.872;9.390;2024-03-17T09:37:25;98891.28;;;12.95;78.10
53719;BME280;39616;48.872;9.390;2024-03-17T09:39:55;98882.81;;;12.97;75.52
53719;BME280;39616;48.872;9.390;2024-03-17T09:42:27;98876.59;;;13.10;73.65
53719;BME280;39616;48.872;9.390;2024-03-17T09:44:57;98873.63;;;13.25;74.73
53719;BME280;39616;48.872;9.390;2024-03-17T09:47:28;98874.78;;;13.05;73.99
53719;BME280;39616;48.872;9.390;2024-03-17T09:49:58;98879.25;;;12.82;72.32
53719;BME280;39616;48.872;9.390;2024-03-17T09:52:29;98887.63;;;13.19;73.30
53719;BME280;39616;48.872;9.390;2024-03-17T09:55:01;98886.63;;;13.28;74.49
53719;BME280;39616;48.872;9.390;2024-03-17T09:57:36;98884.16;;;12.80;74.39
53719;BME280;39616;48.872;9.390;2024-03-17T10:00:10;98893.41;;;12.98;74.89
53719;BME280;39616;48.872;9.390;2024-03-17T10:02:47;98887.53;;;12.40;77.19
53719;BME280;39616;48.872;9.390;2024-03-17T10:05:18;98891.53;;;12.80;76.45
53719;BME280;39616;48.872;9.390;2024-03-17T10:07:58;98900.22;;;12.82;77.76
53719;BME280;39616;48.872;9.390;2024-03-17T10:10:29;98897.06;;;13.08;74.60
53719;BME280;39616;48.872;9.390;2024-03-17T10:12:59;98891.06;;;13.24;74.09
53719;BME280;39616;48.872;9.390;2024-03-17T10:15:29;98897.16;;;13.49;73.49
53719;BME280;39616;48.872;9.390;2024-03-17T10:18:00;98885.09;;;13.22;73.21
53719;BME280;39616;48.872;9.390;2024-03-17T10:20:30;98884.75;;;13.57;71.68
53719;BME280;39616;48.872;9.390;2024-03-17T10:23:02;98882.19;;;13.33;71.25
53719;BME280;39616;48.872;9.390;2024-03-17T10:25:39;98882.25;;;13.74;71.07
53719;BME280;39616;48.872;9.390;2024-03-17T10:28:10;98877.81;;;14.28;71.25
53719;BME280;39616;48.872;9.390;2024-03-17T10:30:41;98876.66;;;14.43;69.32
53719;BME280;39616;48.872;9.390;2024-03-17T10:33:22;98875.13;;;14.50;72.04
53719;BME280;39616;48.872;9.390;2024-03-17T10:35:59;98874.56;;;14.40;67.68
53719;BME280;39616;48.872;9.390;2024-03-17T10:38:30;98875.19;;;14.23;67.01
53719;BME280;39616;48.872;9.390;2024-03-17T10:41:01;98874.53;;;14.04;65.37
53719;BME280;39616;48.872;9.390;2024-03-17T10:43:31;98883.25;;;13.78;66.31
53719;BME280;39616;48.872;9.390;2024-03-17T10:46:01;98891.31;;;13.42;66.46
53719;BME280;39616;48.872;9.390;2024-03-17T10:48:33;98886.88;;;13.46;66.10
53719;BME280;39616;48.872;9.390;2024-03-17T10:51:05;98884.16;;;13.46;67.43
53719;BME280;39616;48.872;9.390;2024-03-17T10:53:35;98880.81;;;13.49;67.15
53719;BME280;39616;48.872;9.390;2024-03-17T10:56:07;98885.47;;;13.48;68.02
53719;BME280;39616;48.872;9.390;2024-03-17T10:58:43;98886.06;;;13.73;65.25
53719;BME280;39616;48.872;9.390;2024-03-17T11:01:19;98880.41;;;13.69;64.80
53719;BME280;39616;48.872;9.390;2024-03-17T11:03:51;98886.84;;;13.32;66.23
53719;BME280;39616;48.872;9.390;2024-03-17T11:06:22;98891.00;;;13.57;66.36
53719;BME280;39616;48.872;9.390;2024-03-17T11:08:53;98891.69;;;14.18;64.57
53719;BME280;39616;48.872;9.390;2024-03-17T11:11:36;98882.06;;;14.70;63.70
53719;BME280;39616;48.872;9.390;2024-03-17T11:14:18;98880.69;;;14.82;63.90
53719;BME280;39616;48.872;9.390;2024-03-17T11:16:52;98882.09;;;14.57;63.08
53719;BME280;39616;48.872;9.390;2024-03-17T11:19:23;98886.13;;;15.04;62.92
53719;BME280;39616;48.872;9.390;2024-03-17T11:21:54;98879.06;;;15.03;62.49
53719;BME280;39616;48.872;9.390;2024-03-17T11:24:27;98876.44;;;14.53;64.70
53719;BME280;39616;48.872;9.390;2024-03-17T11:26:57;98868.63;;;14.83;67.81
53719;BME280;39616;48.872;9.390;2024-03-17T11:29:29;98859.44;;;15.01;65.45
53719;BME280;39616;48.872;9.390;2024-03-17T11:31:59;98868.78;;;14.55;66.34
53719;BME280;39616;48.872;9.390;2024-03-17T11:34:31;98870.00;;;14.35;65.74
53719;BME280;39616;48.872;9.390;2024-03-17T11:37:03;98867.03;;;14.23;66.16
53719;BME280;39616;48.872;9.390;2024-03-17T11:39:51;98863.63;;;14.04;68.99
53719;BME280;39616;48.872;9.390;2024-03-17T11:42:28;98856.19;;;13.82;66.00
53719;BME280;39616;48.872;9.390;2024-03-17T11:45:06;98861.34;;;13.42;68.84
53719;BME280;39616;48.872;9.390;2024-03-17T11:47:43;98854.88;;;13.79;67.87
53719;BME280;39616;48.872;9.390;2024-03-17T11:50:15;98850.75;;;13.68;67.39
53719;BME280;39616;48.872;9.390;2024-03-17T11:52:45;98840.66;;;13.68;66.45
53719;BME280;39616;48.872;9.390;2024-03-17T11:55:20;98836.84;;;13.56;68.47
53719;BME280;39616;48.872;9.390;2024-03-17T11:57:56;98830.06;;;13.53;67.34
53719;BME280;39616;48.872;9.390;2024-03-17T12:00:27;98829.66;;;13.73;66.46
53719;BME280;39616;48.872;9.390;2024-03-17T12:02:57;98820.03;;;13.90;65.58
53719;BME280;39616;48.872;9.390;2024-03-17T12:05:29;98815.31;;;13.82;65.21
53719;BME280;39616;48.872;9.390;2024-03-17T12:08:01;98830.19;;;14.12;65.14
53719;BME280;39616;48.872;9.390;2024-03-17T12:10:31;98821.16;;;13.89;64.63
53719;BME280;39616;48.872;9.390;2024-03-17T12:13:01;98809.88;;;14.18;64.43
53719;BME280;39616;48.872;9.390;2024-03-17T12:15:32;98813.78;;;14.48;62.79
53719;BME280;39616;48.872;9.390;2024-03-17T12:18:03;98811.97;;;14.21;63.53
53719;BME280;39616;48.872;9.390;2024-03-17T12:20:33;98803.19;;;14.69;62.76
53719;BME280;39616;48.872;9.390;2024-03-17T12:23:03;98803.75;;;14.57;66.60
53719;BME280;39616;48.872;9.390;2024-03-17T12:25:34;98810.25;;;14.47;62.05
53719;BME280;39616;48.872;9.390;2024-03-17T12:28:15;98811.44;;;14.33;62.32
53719;BME280;39616;48.872;9.390;2024-03-17T12:30:46;98812.81;;;14.44;61.62
53719;BME280;39616;48.872;9.390;2024-03-17T12:33:16;98807.63;;;14.20;62.78
53719;BME280;39616;48.872;9.390;2024-03-17T12:35:47;98807.97;;;14.41;62.05
53719;BME280;39616;48.872;9.390;2024-03-17T12:38:22;98802.63;;;13.63;64.24
53719;BME280;39616;48.872;9.390;2024-03-17T12:40:53;98795.03;;;13.46;64.31
53719;BME280;39616;48.872;9.390;2024-03-17T12:43:23;98793.69;;;13.85;63.69
53719;BME280;39616;48.872;9.390;2024-03-17T12:45:55;98793.38;;;13.87;64.16
53719;BME280;39616;48.872;9.390;2024-03-17T12:48:26;98795.56;;;13.98;62.90
53719;BME280;39616;48.872;9.390;2024-03-17T12:50:56;98791.16;;;13.89;63.64
53719;BME280;39616;48.872;9.390;2024-03-17T12:53:26;98786.66;;;13.57;65.09
53719;BME280;39616;48.872;9.390;2024-03-17T12:55:57;98784.91;;;13.88;63.95
53719;BME280;39616;48.872;9.390;2024-03-17T12:58:45;98784.41;;;13.86;63.15
53719;BME280;39616;48.872;9.390;2024-03-17T13:01:34;98781.41;;;14.10;62.31
53719;BME280;39616;48.872;9.390;2024-03-17T13:04:05;98777.16;;;14.18;63.93
53719;BME280;39616;48.872;9.390;2024-03-17T13:06:38;98780.47;;;13.78;63.41
53719;BME280;39616;48.872;9.390;2024-03-17T13:09:08;98777.16;;;13.82;63.37
53719;BME280;39616;48.872;9.390;2024-03-17T13:11:40;98778.16;;;13.72;62.25
53719;BME280;39616;48.872;9.390;2024-03-17T13:14:10;98767.97;;;13.77;63.59
53719;BME280;39616;48.872;9.390;2024-03-17T13:16:45;98773.84;;;13.71;62.62
53719;BME280;39616;48.872;9.390;2024-03-17T13:19:16;98772.75;;;13.94;64.16
53719;BME280;39616;48.872;9.390;2024-03-17T13:21:47;98772.03;;;14.02;63.64